Terminal Aerodrome Forecast
Issued by NWS

Home | Current Version | Previous Version | Text Only | Print | Product List | Glossary On
Versions: 1 2 3 4 5 6 7 8 9 10 11 12 13
220
FTUS44 KLZK 150535
TAFHOT
TAF
KHOT 150535Z 1506/1606 36003KT P6SM SCT250
     FM151500 28006KT P6SM SCT120 SCT250
     FM160000 VRB05KT P6SM SKC=

USA.gov is the U.S. government's official web portal to all federal, state and local government web resources and services.